sensor_id;sensor_type;location;lat;lon;timestamp;P1;durP1;ratioP1;P2;durP2;ratioP2
69170;SDS011;56279;47.902;12.308;2023-03-01T00:01:02;18.25;;;8.88;;
69170;SDS011;56279;47.902;12.308;2023-03-01T00:03:23;17.33;;;9.00;;
69170;SDS011;56279;47.902;12.308;2023-03-01T00:08:20;18.10;;;9.05;;
69170;SDS011;56279;47.902;12.308;2023-03-01T00:10:21;19.13;;;9.32;;
69170;SDS011;56279;47.902;12.308;2023-03-01T00:12:23;19.25;;;9.68;;
69170;SDS011;56279;47.902;12.308;2023-03-01T00:14:25;17.30;;;8.63;;
69170;SDS011;56279;47.902;12.308;2023-03-01T00:16:29;17.52;;;8.43;;
69170;SDS011;56279;47.902;12.308;2023-03-01T00:18:31;22.08;;;9.30;;
69170;SDS011;56279;47.902;12.308;2023-03-01T00:20:34;20.17;;;9.80;;
69170;SDS011;56279;47.902;12.308;2023-03-01T00:22:36;18.27;;;9.52;;
69170;SDS011;56279;47.902;12.308;2023-03-01T00:24:38;18.20;;;9.10;;
69170;SDS011;56279;47.902;12.308;2023-03-01T00:26:40;19.17;;;8.93;;
69170;SDS011;56279;47.902;12.308;2023-03-01T00:28:41;18.02;;;8.85;;
69170;SDS011;56279;47.902;12.308;2023-03-01T00:30:43;18.90;;;8.25;;
69170;SDS011;56279;47.902;12.308;2023-03-01T00:32:45;20.15;;;10.23;;
69170;SDS011;56279;47.902;12.308;2023-03-01T00:34:48;16.73;;;8.50;;
69170;SDS011;56279;47.902;12.308;2023-03-01T00:36:54;17.80;;;8.77;;
69170;SDS011;56279;47.902;12.308;2023-03-01T00:38:56;19.63;;;9.40;;
69170;SDS011;56279;47.902;12.308;2023-03-01T00:41:05;18.08;;;8.35;;
69170;SDS011;56279;47.902;12.308;2023-03-01T00:43:08;18.88;;;8.85;;
69170;SDS011;56279;47.902;12.308;2023-03-01T00:45:12;18.57;;;8.80;;
69170;SDS011;56279;47.902;12.308;2023-03-01T00:47:14;15.57;;;8.55;;
69170;SDS011;56279;47.902;12.308;2023-03-01T00:49:15;21.40;;;9.60;;
69170;SDS011;56279;47.902;12.308;2023-03-01T00:51:20;19.45;;;9.13;;
69170;SDS011;56279;47.902;12.308;2023-03-01T00:53:24;18.23;;;9.10;;
69170;SDS011;56279;47.902;12.308;2023-03-01T00:55:26;20.93;;;8.20;;
69170;SDS011;56279;47.902;12.308;2023-03-01T00:57:31;19.83;;;9.25;;
69170;SDS011;56279;47.902;12.308;2023-03-01T00:59:33;17.15;;;8.95;;
69170;SDS011;56279;47.902;12.308;2023-03-01T01:01:40;17.27;;;8.73;;
69170;SDS011;56279;47.902;12.308;2023-03-01T01:03:48;17.25;;;9.32;;
69170;SDS011;56279;47.902;12.308;2023-03-01T01:06:14;21.43;;;8.53;;
69170;SDS011;56279;47.902;12.308;2023-03-01T01:08:25;19.67;;;9.50;;
69170;SDS011;56279;47.902;12.308;2023-03-01T01:10:33;18.48;;;9.48;;
69170;SDS011;56279;47.902;12.308;2023-03-01T01:12:40;20.27;;;8.85;;
69170;SDS011;56279;47.902;12.308;2023-03-01T01:14:43;18.38;;;8.77;;
69170;SDS011;56279;47.902;12.308;2023-03-01T01:16:46;19.13;;;8.97;;
69170;SDS011;56279;47.902;12.308;2023-03-01T01:18:47;18.38;;;9.20;;
69170;SDS011;56279;47.902;12.308;2023-03-01T01:20:49;17.50;;;8.63;;
69170;SDS011;56279;47.902;12.308;2023-03-01T01:22:51;16.58;;;8.63;;
69170;SDS011;56279;47.902;12.308;2023-03-01T01:24:54;19.10;;;9.30;;
69170;SDS011;56279;47.902;12.308;2023-03-01T01:26:57;15.07;;;7.83;;
69170;SDS011;56279;47.902;12.308;2023-03-01T01:28:59;18.95;;;8.25;;
69170;SDS011;56279;47.902;12.308;2023-03-01T01:31:02;17.02;;;8.48;;
69170;SDS011;56279;47.902;12.308;2023-03-01T01:33:04;16.77;;;8.35;;
69170;SDS011;56279;47.902;12.308;2023-03-01T01:35:07;17.90;;;8.57;;
69170;SDS011;56279;47.902;12.308;2023-03-01T01:37:09;17.97;;;8.13;;
69170;SDS011;56279;47.902;12.308;2023-03-01T01:39:11;19.52;;;9.05;;
69170;SDS011;56279;47.902;12.308;2023-03-01T01:41:15;20.00;;;9.18;;
69170;SDS011;56279;47.902;12.308;2023-03-01T01:43:20;17.90;;;8.52;;
69170;SDS011;56279;47.902;12.308;2023-03-01T01:47:35;15.60;;;8.17;;
69170;SDS011;56279;47.902;12.308;2023-03-01T01:49:47;19.08;;;9.35;;
69170;SDS011;56279;47.902;12.308;2023-03-01T01:51:54;17.15;;;8.40;;
69170;SDS011;56279;47.902;12.308;2023-03-01T01:54:01;17.23;;;8.85;;
69170;SDS011;56279;47.902;12.308;2023-03-01T01:56:02;15.45;;;7.28;;
69170;SDS011;56279;47.902;12.308;2023-03-01T01:58:07;18.47;;;8.60;;
69170;SDS011;56279;47.902;12.308;2023-03-01T02:00:19;18.02;;;8.95;;
69170;SDS011;56279;47.902;12.308;2023-03-01T02:02:22;18.30;;;8.48;;
69170;SDS011;56279;47.902;12.308;2023-03-01T02:04:24;16.42;;;8.80;;
69170;SDS011;56279;47.902;12.308;2023-03-01T02:10:14;17.50;;;8.57;;
69170;SDS011;56279;47.902;12.308;2023-03-01T02:12:16;17.98;;;9.13;;
69170;SDS011;56279;47.902;12.308;2023-03-01T02:14:20;18.98;;;9.00;;
69170;SDS011;56279;47.902;12.308;2023-03-01T02:16:22;19.70;;;10.02;;
69170;SDS011;56279;47.902;12.308;2023-03-01T02:18:23;19.88;;;8.60;;
69170;SDS011;56279;47.902;12.308;2023-03-01T02:22:47;15.63;;;7.65;;
69170;SDS011;56279;47.902;12.308;2023-03-01T02:27:22;17.88;;;8.30;;
69170;SDS011;56279;47.902;12.308;2023-03-01T02:29:30;20.17;;;10.32;;
69170;SDS011;56279;47.902;12.308;2023-03-01T02:31:33;21.13;;;8.57;;
69170;SDS011;56279;47.902;12.308;2023-03-01T02:33:43;17.30;;;8.70;;
69170;SDS011;56279;47.902;12.308;2023-03-01T02:35:46;17.80;;;8.13;;
69170;SDS011;56279;47.902;12.308;2023-03-01T02:37:47;17.30;;;9.05;;
69170;SDS011;56279;47.902;12.308;2023-03-01T02:39:49;20.67;;;9.45;;
69170;SDS011;56279;47.902;12.308;2023-03-01T02:41:56;18.00;;;8.47;;
69170;SDS011;56279;47.902;12.308;2023-03-01T02:43:59;17.85;;;9.07;;
69170;SDS011;56279;47.902;12.308;2023-03-01T02:46:05;20.88;;;9.15;;
69170;SDS011;56279;47.902;12.308;2023-03-01T02:48:09;17.40;;;8.93;;
69170;SDS011;56279;47.902;12.308;2023-03-01T02:54:47;20.15;;;8.90;;
69170;SDS011;56279;47.902;12.308;2023-03-01T02:56:54;18.63;;;7.85;;
69170;SDS011;56279;47.902;12.308;2023-03-01T02:58:57;19.70;;;9.00;;
69170;SDS011;56279;47.902;12.308;2023-03-01T03:01:02;16.35;;;8.50;;
69170;SDS011;56279;47.902;12.308;2023-03-01T03:03:03;17.30;;;9.00;;
69170;SDS011;56279;47.902;12.308;2023-03-01T03:08:50;16.23;;;8.20;;
69170;SDS011;56279;47.902;12.308;2023-03-01T03:10:51;16.50;;;9.02;;
69170;SDS011;56279;47.902;12.308;2023-03-01T03:12:55;16.60;;;9.00;;
69170;SDS011;56279;47.902;12.308;2023-03-01T03:15:01;18.00;;;8.77;;
69170;SDS011;56279;47.902;12.308;2023-03-01T03:17:09;17.15;;;8.93;;
69170;SDS011;56279;47.902;12.308;2023-03-01T03:19:10;23.17;;;9.38;;
69170;SDS011;56279;47.902;12.308;2023-03-01T03:21:12;20.25;;;10.10;;
69170;SDS011;56279;47.902;12.308;2023-03-01T03:23:14;18.98;;;8.73;;
69170;SDS011;56279;47.902;12.308;2023-03-01T03:25:16;17.77;;;9.23;;
69170;SDS011;56279;47.902;12.308;2023-03-01T03:27:18;23.25;;;8.60;;
69170;SDS011;56279;47.902;12.308;2023-03-01T03:29:20;14.95;;;8.07;;
69170;SDS011;56279;47.902;12.308;2023-03-01T03:31:21;18.00;;;8.77;;
69170;SDS011;56279;47.902;12.308;2023-03-01T03:33:22;21.55;;;9.07;;
69170;SDS011;56279;47.902;12.308;2023-03-01T03:35:27;18.70;;;8.93;;
69170;SDS011;56279;47.902;12.308;2023-03-01T03:37:32;18.70;;;9.18;;
69170;SDS011;56279;47.902;12.308;2023-03-01T03:39:52;15.93;;;8.60;;
69170;SDS011;56279;47.902;12.308;2023-03-01T03:41:55;21.70;;;9.38;;
69170;SDS011;56279;47.902;12.308;2023-03-01T03:43:56;17.13;;;9.38;;
69170;SDS011;56279;47.902;12.308;2023-03-01T03:45:58;18.67;;;9.57;;
69170;SDS011;56279;47.902;12.308;2023-03-01T03:48:00;18.23;;;9.57;;
69170;SDS011;56279;47.902;12.308;2023-03-01T03:50:02;19.40;;;9.50;;
69170;SDS011;56279;47.902;12.308;2023-03-01T03:52:03;19.95;;;9.30;;
69170;SDS011;56279;47.902;12.308;2023-03-01T03:54:05;21.75;;;9.93;;
69170;SDS011;56279;47.902;12.308;2023-03-01T03:56:06;17.70;;;9.73;;
69170;SDS011;56279;47.902;12.308;2023-03-01T03:58:09;18.55;;;9.25;;
69170;SDS011;56279;47.902;12.308;2023-03-01T04:00:11;17.27;;;9.70;;
69170;SDS011;56279;47.902;12.308;2023-03-01T04:02:13;20.17;;;9.18;;
69170;SDS011;56279;47.902;12.308;2023-03-01T04:04:22;18.45;;;9.23;;
69170;SDS011;56279;47.902;12.308;2023-03-01T04:06:26;19.03;;;9.23;;
69170;SDS011;56279;47.902;12.308;2023-03-01T04:08:27;16.75;;;8.75;;
69170;SDS011;56279;47.902;12.308;2023-03-01T04:10:30;17.67;;;8.38;;
69170;SDS011;56279;47.902;12.308;2023-03-01T04:12:33;19.30;;;9.77;;
69170;SDS011;56279;47.902;12.308;2023-03-01T04:14:35;24.23;;;10.13;;
69170;SDS011;56279;47.902;12.308;2023-03-01T04:16:37;18.87;;;9.20;;
69170;SDS011;56279;47.902;12.308;2023-03-01T04:18:38;17.85;;;9.32;;
69170;SDS011;56279;47.902;12.308;2023-03-01T04:20:39;18.10;;;9.52;;
69170;SDS011;56279;47.902;12.308;2023-03-01T04:22:41;16.80;;;8.38;;
69170;SDS011;56279;47.902;12.308;2023-03-01T04:24:43;17.33;;;9.10;;
69170;SDS011;56279;47.902;12.308;2023-03-01T04:26:45;18.00;;;9.03;;
69170;SDS011;56279;47.902;12.308;2023-03-01T04:28:46;17.45;;;8.30;;
69170;SDS011;56279;47.902;12.308;2023-03-01T04:30:50;19.70;;;9.27;;
69170;SDS011;56279;47.902;12.308;2023-03-01T04:32:52;17.92;;;8.68;;
69170;SDS011;56279;47.902;12.308;2023-03-01T04:34:53;16.83;;;8.98;;
69170;SDS011;56279;47.902;12.308;2023-03-01T04:36:55;20.37;;;9.40;;
69170;SDS011;56279;47.902;12.308;2023-03-01T04:38:56;18.52;;;9.65;;
69170;SDS011;56279;47.902;12.308;2023-03-01T04:40:58;19.05;;;9.63;;
69170;SDS011;56279;47.902;12.308;2023-03-01T04:42:59;18.80;;;9.48;;
69170;SDS011;56279;47.902;12.308;2023-03-01T04:45:00;19.73;;;10.05;;
69170;SDS011;56279;47.902;12.308;2023-03-01T04:47:02;21.07;;;9.13;;
69170;SDS011;56279;47.902;12.308;2023-03-01T04:49:03;18.58;;;9.43;;
69170;SDS011;56279;47.902;12.308;2023-03-01T04:51:06;18.40;;;9.35;;
69170;SDS011;56279;47.902;12.308;2023-03-01T04:53:08;20.00;;;8.75;;
69170;SDS011;56279;47.902;12.308;2023-03-01T04:55:10;18.85;;;9.18;;
69170;SDS011;56279;47.902;12.308;2023-03-01T04:57:13;20.07;;;9.23;;
69170;SDS011;56279;47.902;12.308;2023-03-01T04:59:14;17.38;;;9.20;;
69170;SDS011;56279;47.902;12.308;2023-03-01T05:01:16;20.50;;;9.98;;
69170;SDS011;56279;47.902;12.308;2023-03-01T05:03:19;20.23;;;10.02;;
69170;SDS011;56279;47.902;12.308;2023-03-01T05:07:44;18.60;;;9.07;;
69170;SDS011;56279;47.902;12.308;2023-03-01T05:09:46;19.23;;;8.73;;
69170;SDS011;56279;47.902;12.308;2023-03-01T05:11:47;17.58;;;8.68;;
69170;SDS011;56279;47.902;12.308;2023-03-01T05:13:49;16.33;;;8.00;;
69170;SDS011;56279;47.902;12.308;2023-03-01T05:15:56;19.65;;;9.20;;
69170;SDS011;56279;47.902;12.308;2023-03-01T05:17:59;19.77;;;9.27;;
69170;SDS011;56279;47.902;12.308;2023-03-01T05:20:01;17.77;;;8.65;;
69170;SDS011;56279;47.902;12.308;2023-03-01T05:22:07;20.10;;;9.07;;
69170;SDS011;56279;47.902;12.308;2023-03-01T05:24:08;20.08;;;8.70;;
69170;SDS011;56279;47.902;12.308;2023-03-01T05:26:12;22.65;;;9.98;;
69170;SDS011;56279;47.902;12.308;2023-03-01T05:28:14;16.17;;;8.13;;
69170;SDS011;56279;47.902;12.308;2023-03-01T05:30:16;20.48;;;9.70;;
69170;SDS011;56279;47.902;12.308;2023-03-01T05:32:18;20.20;;;9.55;;
69170;SDS011;56279;47.902;12.308;2023-03-01T05:34:23;24.27;;;10.20;;
69170;SDS011;56279;47.902;12.308;2023-03-01T05:36:28;17.08;;;8.63;;
69170;SDS011;56279;47.902;12.308;2023-03-01T05:38:30;19.73;;;9.23;;
69170;SDS011;56279;47.902;12.308;2023-03-01T05:40:32;18.10;;;8.43;;
69170;SDS011;56279;47.902;12.308;2023-03-01T05:42:34;18.48;;;8.77;;
69170;SDS011;56279;47.902;12.308;2023-03-01T05:44:36;19.90;;;10.25;;
69170;SDS011;56279;47.902;12.308;2023-03-01T05:46:37;22.42;;;10.35;;
69170;SDS011;56279;47.902;12.308;2023-03-01T05:48:39;18.63;;;9.13;;
69170;SDS011;56279;47.902;12.308;2023-03-01T05:50:43;20.38;;;9.63;;
69170;SDS011;56279;47.902;12.308;2023-03-01T05:52:57;19.25;;;10.00;;
69170;SDS011;56279;47.902;12.308;2023-03-01T05:55:08;20.75;;;9.25;;
69170;SDS011;56279;47.902;12.308;2023-03-01T05:57:10;23.63;;;10.18;;
69170;SDS011;56279;47.902;12.308;2023-03-01T05:59:11;22.40;;;9.93;;
69170;SDS011;56279;47.902;12.308;2023-03-01T06:01:12;21.05;;;9.70;;
69170;SDS011;56279;47.902;12.308;2023-03-01T06:03:14;21.63;;;9.30;;
69170;SDS011;56279;47.902;12.308;2023-03-01T06:05:18;20.45;;;10.57;;
69170;SDS011;56279;47.902;12.308;2023-03-01T06:07:20;23.92;;;10.60;;
69170;SDS011;56279;47.902;12.308;2023-03-01T06:09:21;22.50;;;9.53;;
69170;SDS011;56279;47.902;12.308;2023-03-01T06:11:22;17.23;;;9.52;;
69170;SDS011;56279;47.902;12.308;2023-03-01T06:13:23;18.48;;;8.27;;
69170;SDS011;56279;47.902;12.308;2023-03-01T06:15:25;21.15;;;9.82;;
69170;SDS011;56279;47.902;12.308;2023-03-01T06:17:32;23.27;;;10.05;;
69170;SDS011;56279;47.902;12.308;2023-03-01T06:19:38;19.83;;;9.83;;
69170;SDS011;56279;47.902;12.308;2023-03-01T06:21:39;17.42;;;8.93;;
69170;SDS011;56279;47.902;12.308;2023-03-01T06:23:40;19.85;;;10.13;;
69170;SDS011;56279;47.902;12.308;2023-03-01T06:25:42;21.67;;;9.60;;
69170;SDS011;56279;47.902;12.308;2023-03-01T06:27:43;20.42;;;9.45;;
69170;SDS011;56279;47.902;12.308;2023-03-01T06:29:46;24.30;;;9.10;;
69170;SDS011;56279;47.902;12.308;2023-03-01T06:31:47;24.70;;;10.27;;
69170;SDS011;56279;47.902;12.308;2023-03-01T06:33:49;21.98;;;10.70;;
69170;SDS011;56279;47.902;12.308;2023-03-01T06:35:54;19.10;;;8.85;;
69170;SDS011;56279;47.902;12.308;2023-03-01T06:37:55;22.33;;;9.77;;
69170;SDS011;56279;47.902;12.308;2023-03-01T06:39:58;20.40;;;9.83;;
69170;SDS011;56279;47.902;12.308;2023-03-01T06:41:59;22.08;;;10.27;;
69170;SDS011;56279;47.902;12.308;2023-03-01T06:44:01;21.17;;;10.05;;
69170;SDS011;56279;47.902;12.308;2023-03-01T06:46:04;20.05;;;9.75;;
69170;SDS011;56279;47.902;12.308;2023-03-01T06:48:07;19.55;;;9.50;;
69170;SDS011;56279;47.902;12.308;2023-03-01T06:50:08;18.80;;;9.97;;
69170;SDS011;56279;47.902;12.308;2023-03-01T06:52:10;16.67;;;8.90;;
69170;SDS011;56279;47.902;12.308;2023-03-01T06:54:12;18.20;;;9.50;;
69170;SDS011;56279;47.902;12.308;2023-03-01T06:56:14;20.75;;;10.27;;
69170;SDS011;56279;47.902;12.308;2023-03-01T06:58:15;26.83;;;10.85;;
69170;SDS011;56279;47.902;12.308;2023-03-01T07:00:16;21.90;;;9.80;;
69170;SDS011;56279;47.902;12.308;2023-03-01T07:02:18;20.50;;;10.32;;
69170;SDS011;56279;47.902;12.308;2023-03-01T07:04:19;19.90;;;10.48;;
69170;SDS011;56279;47.902;12.308;2023-03-01T07:06:36;23.63;;;9.38;;
69170;SDS011;56279;47.902;12.308;2023-03-01T07:08:38;17.77;;;8.93;;
69170;SDS011;56279;47.902;12.308;2023-03-01T07:10:39;27.07;;;11.13;;
69170;SDS011;56279;47.902;12.308;2023-03-01T07:12:40;24.25;;;11.45;;
69170;SDS011;56279;47.902;12.308;2023-03-01T07:14:43;23.95;;;10.35;;
69170;SDS011;56279;47.902;12.308;2023-03-01T07:16:45;20.55;;;9.75;;
69170;SDS011;56279;47.902;12.308;2023-03-01T07:18:47;22.02;;;9.70;;
69170;SDS011;56279;47.902;12.308;2023-03-01T07:20:48;22.07;;;10.40;;
69170;SDS011;56279;47.902;12.308;2023-03-01T07:22:50;23.05;;;10.88;;
69170;SDS011;56279;47.902;12.308;2023-03-01T07:24:52;21.58;;;10.68;;
69170;SDS011;56279;47.902;12.308;2023-03-01T07:26:54;24.77;;;10.75;;
69170;SDS011;56279;47.902;12.308;2023-03-01T07:28:58;21.00;;;10.18;;
69170;SDS011;56279;47.902;12.308;2023-03-01T07:31:00;21.77;;;11.40;;
69170;SDS011;56279;47.902;12.308;2023-03-01T07:33:05;24.42;;;11.55;;
69170;SDS011;56279;47.902;12.308;2023-03-01T07:35:06;23.33;;;11.70;;
69170;SDS011;56279;47.902;12.308;2023-03-01T07:37:08;23.95;;;11.77;;
69170;SDS011;56279;47.902;12.308;2023-03-01T07:39:10;20.02;;;9.45;;
69170;SDS011;56279;47.902;12.308;2023-03-01T07:41:12;23.13;;;10.93;;
69170;SDS011;56279;47.902;12.308;2023-03-01T07:43:13;20.85;;;10.57;;
69170;SDS011;56279;47.902;12.308;2023-03-01T07:45:14;23.63;;;11.32;;
69170;SDS011;56279;47.902;12.308;2023-03-01T07:47:16;25.08;;;11.45;;
69170;SDS011;56279;47.902;12.308;2023-03-01T07:49:18;23.17;;;11.27;;
69170;SDS011;56279;47.902;12.308;2023-03-01T07:51:19;23.90;;;11.90;;
69170;SDS011;56279;47.902;12.308;2023-03-01T07:53:21;23.30;;;10.93;;
69170;SDS011;56279;47.902;12.308;2023-03-01T07:55:22;22.98;;;10.80;;
69170;SDS011;56279;47.902;12.308;2023-03-01T07:57:23;24.48;;;11.25;;
69170;SDS011;56279;47.902;12.308;2023-03-01T07:59:24;24.23;;;11.38;;
69170;SDS011;56279;47.902;12.308;2023-03-01T08:01:29;23.27;;;11.73;;
69170;SDS011;56279;47.902;12.308;2023-03-01T08:03:31;24.73;;;11.32;;
69170;SDS011;56279;47.902;12.308;2023-03-01T08:05:35;26.63;;;11.55;;
69170;SDS011;56279;47.902;12.308;2023-03-01T08:07:36;21.17;;;11.10;;
69170;SDS011;56279;47.902;12.308;2023-03-01T08:09:37;27.00;;;11.70;;
69170;SDS011;56279;47.902;12.308;2023-03-01T08:11:39;24.53;;;11.50;;
69170;SDS011;56279;47.902;12.308;2023-03-01T08:13:40;25.73;;;11.90;;
69170;SDS011;56279;47.902;12.308;2023-03-01T08:15:42;22.73;;;11.07;;
69170;SDS011;56279;47.902;12.308;2023-03-01T08:17:43;21.35;;;10.82;;
69170;SDS011;56279;47.902;12.308;2023-03-01T08:19:45;24.20;;;11.20;;
69170;SDS011;56279;47.902;12.308;2023-03-01T08:21:46;20.47;;;10.13;;
69170;SDS011;56279;47.902;12.308;2023-03-01T08:23:47;23.67;;;10.70;;
69170;SDS011;56279;47.902;12.308;2023-03-01T08:25:49;25.60;;;12.27;;
69170;SDS011;56279;47.902;12.308;2023-03-01T08:27:50;22.83;;;11.93;;
69170;SDS011;56279;47.902;12.308;2023-03-01T08:29:51;23.48;;;11.38;;
69170;SDS011;56279;47.902;12.308;2023-03-01T08:31:52;23.33;;;11.27;;
69170;SDS011;56279;47.902;12.308;2023-03-01T08:33:55;23.13;;;11.63;;
69170;SDS011;56279;47.902;12.308;2023-03-01T08:36:04;26.85;;;12.35;;
69170;SDS011;56279;47.902;12.308;2023-03-01T08:38:07;22.77;;;9.98;;
69170;SDS011;56279;47.902;12.308;2023-03-01T08:40:09;26.00;;;12.13;;
69170;SDS011;56279;47.902;12.308;2023-03-01T08:42:11;28.07;;;12.60;;
69170;SDS011;56279;47.902;12.308;2023-03-01T08:44:12;27.27;;;12.00;;
69170;SDS011;56279;47.902;12.308;2023-03-01T08:46:15;26.08;;;12.27;;
69170;SDS011;56279;47.902;12.308;2023-03-01T08:48:16;22.23;;;10.93;;
69170;SDS011;56279;47.902;12.308;2023-03-01T08:50:18;26.52;;;11.95;;
69170;SDS011;56279;47.902;12.308;2023-03-01T08:52:19;22.97;;;11.30;;
69170;SDS011;56279;47.902;12.308;2023-03-01T08:54:21;23.40;;;11.30;;
69170;SDS011;56279;47.902;12.308;2023-03-01T08:56:22;25.02;;;11.85;;
69170;SDS011;56279;47.902;12.308;2023-03-01T08:58:24;23.48;;;11.30;;
69170;SDS011;56279;47.902;12.308;2023-03-01T09:00:25;26.10;;;12.73;;
69170;SDS011;56279;47.902;12.308;2023-03-01T09:02:26;24.93;;;11.77;;
69170;SDS011;56279;47.902;12.308;2023-03-01T09:04:27;26.80;;;11.52;;
69170;SDS011;56279;47.902;12.308;2023-03-01T09:06:32;24.00;;;12.38;;
69170;SDS011;56279;47.902;12.308;2023-03-01T09:08:35;21.27;;;10.35;;
69170;SDS011;56279;47.902;12.308;2023-03-01T09:10:38;21.98;;;10.55;;
69170;SDS011;56279;47.902;12.308;2023-03-01T09:12:40;24.13;;;11.83;;
69170;SDS011;56279;47.902;12.308;2023-03-01T09:14:41;26.40;;;10.55;;
69170;SDS011;56279;47.902;12.308;2023-03-01T09:16:42;26.23;;;12.30;;
69170;SDS011;56279;47.902;12.308;2023-03-01T09:18:44;17.48;;;8.32;;
69170;SDS011;56279;47.902;12.308;2023-03-01T09:20:46;25.35;;;11.55;;
69170;SDS011;56279;47.902;12.308;2023-03-01T09:22:47;22.77;;;11.40;;
69170;SDS011;56279;47.902;12.308;2023-03-01T09:24:48;26.08;;;12.23;;
69170;SDS011;56279;47.902;12.308;2023-03-01T09:26:51;25.67;;;11.73;;
69170;SDS011;56279;47.902;12.308;2023-03-01T09:28:55;23.63;;;11.18;;
69170;SDS011;56279;47.902;12.308;2023-03-01T09:30:58;25.90;;;11.43;;
69170;SDS011;56279;47.902;12.308;2023-03-01T09:33:00;24.53;;;12.33;;
69170;SDS011;56279;47.902;12.308;2023-03-01T09:35:01;28.95;;;13.38;;
69170;SDS011;56279;47.902;12.308;2023-03-01T09:37:05;24.20;;;11.95;;
69170;SDS011;56279;47.902;12.308;2023-03-01T09:39:06;22.85;;;11.35;;
69170;SDS011;56279;47.902;12.308;2023-03-01T09:43:20;27.30;;;13.50;;
69170;SDS011;56279;47.902;12.308;2023-03-01T09:45:41;30.60;;;14.63;;
69170;SDS011;56279;47.902;12.308;2023-03-01T09:47:46;27.83;;;13.00;;
69170;SDS011;56279;47.902;12.308;2023-03-01T09:49:56;22.23;;;11.73;;
69170;SDS011;56279;47.902;12.308;2023-03-01T09:54:22;25.77;;;11.87;;
69170;SDS011;56279;47.902;12.308;2023-03-01T09:56:32;23.92;;;12.00;;
69170;SDS011;56279;47.902;12.308;2023-03-01T09:58:47;26.55;;;11.88;;
69170;SDS011;56279;47.902;12.308;2023-03-01T10:00:59;23.75;;;10.88;;
69170;SDS011;56279;47.902;12.308;2023-03-01T10:07:32;26.48;;;12.80;;
69170;SDS011;56279;47.902;12.308;2023-03-01T10:09:48;24.02;;;10.98;;
69170;SDS011;56279;47.902;12.308;2023-03-01T10:11:58;21.40;;;11.73;;
69170;SDS011;56279;47.902;12.308;2023-03-01T10:23:08;23.83;;;11.05;;
69170;SDS011;56279;47.902;12.308;2023-03-01T10:26:55;23.45;;;11.00;;
69170;SDS011;56279;47.902;12.308;2023-03-01T10:31:03;23.60;;;11.53;;
69170;SDS011;56279;47.902;12.308;2023-03-01T10:33:15;24.83;;;12.00;;
69170;SDS011;56279;47.902;12.308;2023-03-01T10:35:23;21.90;;;11.50;;
69170;SDS011;56279;47.902;12.308;2023-03-01T10:37:27;22.23;;;10.95;;
69170;SDS011;56279;47.902;12.308;2023-03-01T10:39:30;23.70;;;11.70;;
69170;SDS011;56279;47.902;12.308;2023-03-01T10:41:31;24.03;;;11.43;;
69170;SDS011;56279;47.902;12.308;2023-03-01T10:43:54;24.63;;;11.15;;
69170;SDS011;56279;47.902;12.308;2023-03-01T10:45:58;22.67;;;10.80;;
69170;SDS011;56279;47.902;12.308;2023-03-01T10:48:03;22.60;;;11.15;;
69170;SDS011;56279;47.902;12.308;2023-03-01T10:50:22;22.00;;;10.50;;
69170;SDS011;56279;47.902;12.308;2023-03-01T10:52:25;20.03;;;9.93;;
69170;SDS011;56279;47.902;12.308;2023-03-01T10:54:29;26.42;;;10.60;;
69170;SDS011;56279;47.902;12.308;2023-03-01T10:56:45;22.85;;;10.70;;
69170;SDS011;56279;47.902;12.308;2023-03-01T11:02:31;27.10;;;12.77;;
69170;SDS011;56279;47.902;12.308;2023-03-01T11:04:34;30.87;;;13.73;;
69170;SDS011;56279;47.902;12.308;2023-03-01T11:06:42;23.58;;;11.40;;
69170;SDS011;56279;47.902;12.308;2023-03-01T11:08:45;24.75;;;11.95;;
69170;SDS011;56279;47.902;12.308;2023-03-01T11:10:47;23.17;;;11.32;;
69170;SDS011;56279;47.902;12.308;2023-03-01T11:12:50;21.60;;;11.65;;
69170;SDS011;56279;47.902;12.308;2023-03-01T11:14:53;23.53;;;11.37;;
69170;SDS011;56279;47.902;12.308;2023-03-01T11:17:30;26.08;;;12.10;;
69170;SDS011;56279;47.902;12.308;2023-03-01T11:19:30;22.50;;;11.73;;
69170;SDS011;56279;47.902;12.308;2023-03-01T11:21:33;24.10;;;10.88;;
69170;SDS011;56279;47.902;12.308;2023-03-01T11:23:37;20.33;;;9.20;;
69170;SDS011;56279;47.902;12.308;2023-03-01T11:25:46;22.10;;;10.17;;
69170;SDS011;56279;47.902;12.308;2023-03-01T11:27:53;20.10;;;9.98;;
69170;SDS011;56279;47.902;12.308;2023-03-01T11:30:02;19.75;;;9.90;;
69170;SDS011;56279;47.902;12.308;2023-03-01T11:32:07;20.10;;;9.75;;
69170;SDS011;56279;47.902;12.308;2023-03-01T11:40:59;20.70;;;9.07;;
69170;SDS011;56279;47.902;12.308;2023-03-01T11:43:23;18.77;;;9.43;;
69170;SDS011;56279;47.902;12.308;2023-03-01T11:45:42;21.42;;;10.85;;
69170;SDS011;56279;47.902;12.308;2023-03-01T11:48:20;21.90;;;9.48;;
69170;SDS011;56279;47.902;12.308;2023-03-01T11:50:35;20.70;;;9.70;;
69170;SDS011;56279;47.902;12.308;2023-03-01T12:10:27;19.67;;;9.82;;
69170;SDS011;56279;47.902;12.308;2023-03-01T12:14:51;23.17;;;10.50;;
69170;SDS011;56279;47.902;12.308;2023-03-01T12:19:39;22.15;;;10.10;;
69170;SDS011;56279;47.902;12.308;2023-03-01T12:22:09;21.48;;;10.98;;
69170;SDS011;56279;47.902;12.308;2023-03-01T12:26:52;22.10;;;10.03;;
69170;SDS011;56279;47.902;12.308;2023-03-01T12:31:21;22.85;;;9.73;;
69170;SDS011;56279;47.902;12.308;2023-03-01T12:33:38;22.50;;;10.60;;
69170;SDS011;56279;47.902;12.308;2023-03-01T12:38:00;22.20;;;9.23;;
69170;SDS011;56279;47.902;12.308;2023-03-01T12:41:01;21.38;;;9.65;;
69170;SDS011;56279;47.902;12.308;2023-03-01T12:50:26;20.53;;;10.03;;
69170;SDS011;56279;47.902;12.308;2023-03-01T13:14:50;24.57;;;10.73;;
69170;SDS011;56279;47.902;12.308;2023-03-01T13:16:55;25.77;;;10.57;;
69170;SDS011;56279;47.902;12.308;2023-03-01T13:19:14;24.67;;;12.20;;
69170;SDS011;56279;47.902;12.308;2023-03-01T13:21:29;22.30;;;10.48;;
69170;SDS011;56279;47.902;12.308;2023-03-01T13:23:33;25.05;;;11.48;;
69170;SDS011;56279;47.902;12.308;2023-03-01T13:25:59;24.80;;;11.60;;
69170;SDS011;56279;47.902;12.308;2023-03-01T13:32:35;22.92;;;11.07;;
69170;SDS011;56279;47.902;12.308;2023-03-01T13:34:44;22.35;;;11.07;;
69170;SDS011;56279;47.902;12.308;2023-03-01T13:36:47;23.90;;;11.77;;
69170;SDS011;56279;47.902;12.308;2023-03-01T13:43:40;21.77;;;11.35;;
69170;SDS011;56279;47.902;12.308;2023-03-01T13:45:44;26.65;;;11.77;;
69170;SDS011;56279;47.902;12.308;2023-03-01T13:48:21;25.43;;;11.20;;
69170;SDS011;56279;47.902;12.308;2023-03-01T13:50:29;22.52;;;10.73;;
69170;SDS011;56279;47.902;12.308;2023-03-01T13:54:49;25.52;;;11.52;;
69170;SDS011;56279;47.902;12.308;2023-03-01T13:56:50;25.27;;;11.80;;
69170;SDS011;56279;47.902;12.308;2023-03-01T13:58:53;25.07;;;12.13;;
69170;SDS011;56279;47.902;12.308;2023-03-01T14:01:03;23.20;;;10.98;;
69170;SDS011;56279;47.902;12.308;2023-03-01T14:03:19;23.92;;;11.38;;
69170;SDS011;56279;47.902;12.308;2023-03-01T14:08:19;25.38;;;12.00;;
69170;SDS011;56279;47.902;12.308;2023-03-01T14:10:23;22.80;;;11.27;;
69170;SDS011;56279;47.902;12.308;2023-03-01T14:12:39;21.65;;;12.00;;
69170;SDS011;56279;47.902;12.308;2023-03-01T14:14:46;23.90;;;11.13;;